Time;durP1;ratioP1;P1;durP2;ratioP2;P2;SDS_P1;SDS_P2;PMS_P1;PMS_P2;Temp;Humidity;BMP_temperature;BMP_pressure;BME280_temperature;BME280_humidity;BME280_pressure;Samples;Min_cycle;Max_cycle;Signal;HPM_P1;HPM_P2
2024/02/15 00:00:03;;;;;;;;;;;17.70;66.20;;;;;;5018079;28;1392;-68
2024/02/15 00:02:29;;;;;;;;;;;17.70;66.20;;;;;;5022794;28;1951;-66
2024/02/15 00:04:54;;;;;;;;;;;17.70;66.20;;;;;;5026415;28;1301;-67
2024/02/15 00:07:22;;;;;;;;;;;17.70;66.20;;;;;;5025137;28;1038;-68
2024/02/15 00:09:47;;;;;;;;;;;17.70;66.20;;;;;;5024564;28;1360;-70
2024/02/15 00:12:13;;;;;;;;;;;17.70;66.20;;;;;;5025693;28;1187;-66
2024/02/15 00:14:38;;;;;;;;;;;17.70;66.20;;;;;;5023006;28;1263;-67
2024/02/15 00:17:04;;;;;;;;;;;17.70;66.30;;;;;;5028137;28;1589;-68
2024/02/15 00:19:30;;;;;;;;;;;17.70;66.30;;;;;;5020242;28;1685;-71
2024/02/15 00:21:56;;;;;;;;;;;17.70;66.30;;;;;;5020438;28;1894;-67
2024/02/15 00:24:21;;;;;;;;;;;17.70;66.30;;;;;;5018454;28;1649;-66
2024/02/15 00:26:47;;;;;;;;;;;17.70;66.30;;;;;;5025263;28;907;-67
2024/02/15 00:29:13;;;;;;;;;;;17.70;66.30;;;;;;5007394;28;1748;-66
2024/02/15 00:31:39;;;;;;;;;;;17.70;66.30;;;;;;5025489;28;1265;-68
2024/02/15 00:34:05;;;;;;;;;;;17.70;66.30;;;;;;5009430;28;1352;-67
2024/02/15 00:36:32;;;;;;;;;;;17.70;66.30;;;;;;5010916;28;1330;-67
2024/02/15 00:39:00;;;;;;;;;;;17.70;66.40;;;;;;5023236;28;1367;-66
2024/02/15 00:41:25;;;;;;;;;;;17.70;66.40;;;;;;5024862;28;1890;-67
2024/02/15 00:43:51;;;;;;;;;;;17.70;66.40;;;;;;5025248;28;843;-66
2024/02/15 00:46:16;;;;;;;;;;;17.70;66.40;;;;;;5024225;28;951;-70
2024/02/15 00:48:42;;;;;;;;;;;17.70;66.40;;;;;;5029056;28;1708;-66
2024/02/15 00:51:07;;;;;;;;;;;17.60;66.40;;;;;;5030284;28;1258;-68
2024/02/15 00:53:33;;;;;;;;;;;17.60;66.30;;;;;;5031222;28;1194;-69
2024/02/15 00:55:58;;;;;;;;;;;17.60;66.40;;;;;;5008272;28;1330;-70
2024/02/15 00:58:26;;;;;;;;;;;17.60;66.40;;;;;;5026256;28;1174;-68
2024/02/15 01:00:51;;;;;;;;;;;17.60;66.40;;;;;;5025764;28;1399;-67
2024/02/15 01:03:17;;;;;;;;;;;17.60;66.40;;;;;;5027941;28;1963;-67
2024/02/15 01:05:42;;;;;;;;;;;17.60;66.40;;;;;;5009985;28;1207;-67
2024/02/15 01:08:08;;;;;;;;;;;17.60;66.40;;;;;;5022469;28;1381;-68
2024/02/15 01:10:34;;;;;;;;;;;17.60;66.40;;;;;;5032832;28;1256;-68
2024/02/15 01:13:00;;;;;;;;;;;17.60;66.40;;;;;;5030355;28;1217;-67
2024/02/15 01:15:25;;;;;;;;;;;17.60;66.40;;;;;;5025708;28;1457;-68
2024/02/15 01:17:51;;;;;;;;;;;17.60;66.50;;;;;;5019421;28;1329;-66
2024/02/15 01:20:16;;;;;;;;;;;17.60;66.40;;;;;;5022892;28;1724;-68
2024/02/15 01:22:44;;;;;;;;;;;17.60;66.40;;;;;;5029477;28;1979;-67
2024/02/15 01:25:10;;;;;;;;;;;17.60;66.50;;;;;;5022231;28;1406;-69
2024/02/15 01:27:36;;;;;;;;;;;17.60;66.50;;;;;;5025589;28;1638;-68
2024/02/15 01:30:01;;;;;;;;;;;17.60;66.50;;;;;;5028730;28;1735;-67
2024/02/15 01:32:27;;;;;;;;;;;17.60;66.50;;;;;;5009311;28;1327;-66
2024/02/15 01:34:54;;;;;;;;;;;17.60;66.50;;;;;;5024608;28;1526;-71
2024/02/15 01:37:20;;;;;;;;;;;17.60;66.50;;;;;;5022235;28;1361;-70
2024/02/15 01:39:46;;;;;;;;;;;17.60;66.50;;;;;;5022524;28;1379;-71
2024/02/15 01:42:14;;;;;;;;;;;17.60;66.50;;;;;;5020498;28;1906;-71
2024/02/15 01:44:40;;;;;;;;;;;17.60;67.30;;;;;;5025303;28;1501;-70
2024/02/15 01:47:05;;;;;;;;;;;17.60;66.60;;;;;;5023130;28;1477;-71
2024/02/15 01:49:32;;;;;;;;;;;17.60;66.50;;;;;;5023185;28;1621;-68
2024/02/15 01:51:57;;;;;;;;;;;17.60;66.50;;;;;;5022195;28;1203;-70
2024/02/15 01:54:23;;;;;;;;;;;17.60;66.60;;;;;;5022388;28;1440;-69
2024/02/15 01:56:48;;;;;;;;;;;17.60;66.50;;;;;;5025083;28;1366;-66
2024/02/15 01:59:14;;;;;;;;;;;17.60;66.50;;;;;;5024089;28;1438;-69
2024/02/15 02:01:40;;;;;;;;;;;17.60;66.60;;;;;;5022430;28;1910;-69
2024/02/15 02:04:05;;;;;;;;;;;17.60;67.40;;;;;;5020521;28;1483;-69
2024/02/15 02:06:31;;;;;;;;;;;17.60;66.60;;;;;;5023263;28;1517;-69
2024/02/15 02:08:56;;;;;;;;;;;17.60;66.60;;;;;;5021177;28;1423;-70
2024/02/15 02:11:24;;;;;;;;;;;17.60;66.60;;;;;;5005351;28;1396;-68
2024/02/15 02:13:51;;;;;;;;;;;17.60;66.70;;;;;;5018174;28;1458;-70
2024/02/15 02:16:31;;;;;;;;;;;17.60;66.60;;;;;;5020319;28;1555;-69
2024/02/15 02:18:57;;;;;;;;;;;17.60;66.70;;;;;;5018878;28;1356;-70
2024/02/15 02:21:24;;;;;;;;;;;17.60;66.70;;;;;;5019221;28;1910;-70
2024/02/15 02:23:52;;;;;;;;;;;17.60;66.70;;;;;;5021158;28;1270;-69
2024/02/15 02:26:18;;;;;;;;;;;17.60;66.70;;;;;;5019358;28;1345;-66
2024/02/15 02:28:43;;;;;;;;;;;17.60;66.70;;;;;;5022253;28;1696;-70
2024/02/15 02:31:11;;;;;;;;;;;17.60;66.70;;;;;;5020094;28;1509;-70
2024/02/15 02:33:37;;;;;;;;;;;17.50;66.70;;;;;;5021241;28;1494;-70
2024/02/15 02:36:02;;;;;;;;;;;17.60;66.70;;;;;;5020864;28;1508;-70
2024/02/15 02:38:28;;;;;;;;;;;17.60;66.80;;;;;;5017455;28;1545;-69
2024/02/15 02:40:53;;;;;;;;;;;17.50;66.70;;;;;;5017450;28;1559;-70
2024/02/15 02:43:19;;;;;;;;;;;17.60;66.80;;;;;;5018835;28;1959;-69
2024/02/15 02:45:45;;;;;;;;;;;17.50;66.70;;;;;;5021909;28;1747;-70
2024/02/15 02:48:11;;;;;;;;;;;17.50;66.70;;;;;;5019861;28;820;-70
2024/02/15 02:50:37;;;;;;;;;;;17.50;66.70;;;;;;5018612;28;1424;-69
2024/02/15 02:53:02;;;;;;;;;;;17.50;66.70;;;;;;5027015;28;1244;-69
2024/02/15 02:55:28;;;;;;;;;;;17.50;66.80;;;;;;5016735;28;1464;-68
2024/02/15 02:57:54;;;;;;;;;;;17.50;66.70;;;;;;5020568;28;1287;-68
2024/02/15 03:00:20;;;;;;;;;;;17.50;66.70;;;;;;5026517;28;1494;-68
2024/02/15 03:02:46;;;;;;;;;;;17.50;66.70;;;;;;5019994;28;1902;-69
2024/02/15 03:05:12;;;;;;;;;;;17.50;66.70;;;;;;5027149;28;1542;-70
2024/02/15 03:07:38;;;;;;;;;;;17.50;66.80;;;;;;5020606;28;1524;-70
2024/02/15 03:10:13;;;;;;;;;;;17.50;66.70;;;;;;5018449;28;1746;-71
2024/02/15 03:12:39;;;;;;;;;;;17.50;66.70;;;;;;5018077;28;1467;-69
2024/02/15 03:15:13;;;;;;;;;;;17.50;66.70;;;;;;5015702;28;1391;-69
2024/02/15 03:17:39;;;;;;;;;;;17.60;66.90;;;;;;5020424;28;1516;-69
2024/02/15 03:20:25;;;;;;;;;;;17.50;66.80;;;;;;5019122;28;1287;-67
2024/02/15 03:22:54;;;;;;;;;;;17.50;66.80;;;;;;5015081;28;1974;-69
2024/02/15 03:25:23;;;;;;;;;;;17.50;66.80;;;;;;5020823;28;1279;-69
2024/02/15 03:27:52;;;;;;;;;;;17.50;66.80;;;;;;5018359;28;1407;-69
2024/02/15 03:30:19;;;;;;;;;;;17.50;66.80;;;;;;5017781;28;1556;-69
2024/02/15 03:32:45;;;;;;;;;;;17.50;66.90;;;;;;5017149;28;1222;-68
2024/02/15 03:35:13;;;;;;;;;;;17.50;66.80;;;;;;5025500;28;1616;-68
2024/02/15 03:37:39;;;;;;;;;;;17.50;66.80;;;;;;5018059;28;1548;-67
2024/02/15 03:40:05;;;;;;;;;;;17.50;66.80;;;;;;5019649;28;1305;-68
2024/02/15 03:42:31;;;;;;;;;;;17.50;66.80;;;;;;5019485;28;1898;-68
2024/02/15 03:44:56;;;;;;;;;;;17.50;66.80;;;;;;5016389;28;1262;-68
2024/02/15 03:47:22;;;;;;;;;;;17.50;66.80;;;;;;5025437;28;1251;-67
2024/02/15 03:49:47;;;;;;;;;;;17.50;66.90;;;;;;5018118;28;1559;-67
2024/02/15 03:52:13;;;;;;;;;;;17.50;66.90;;;;;;5018963;28;1450;-69
2024/02/15 03:54:38;;;;;;;;;;;17.50;66.90;;;;;;5016153;28;1218;-68
2024/02/15 03:57:06;;;;;;;;;;;17.50;66.90;;;;;;5017323;28;1426;-70
2024/02/15 03:59:32;;;;;;;;;;;17.50;66.90;;;;;;5018992;28;1456;-71
2024/02/15 04:01:57;;;;;;;;;;;17.50;66.90;;;;;;5017449;28;1949;-71
2024/02/15 04:04:23;;;;;;;;;;;17.50;66.90;;;;;;5018939;28;1277;-71
2024/02/15 04:06:49;;;;;;;;;;;17.50;66.90;;;;;;5018854;28;1461;-70
2024/02/15 04:09:14;;;;;;;;;;;17.50;66.90;;;;;;5017298;28;1324;-70
2024/02/15 04:11:40;;;;;;;;;;;17.50;66.90;;;;;;5019528;28;1688;-71
2024/02/15 04:14:05;;;;;;;;;;;17.50;66.90;;;;;;5019247;28;1568;-70
2024/02/15 04:16:31;;;;;;;;;;;17.50;66.90;;;;;;5018015;28;1400;-71
2024/02/15 04:18:57;;;;;;;;;;;17.50;66.90;;;;;;5046953;28;1318;-69
2024/02/15 04:21:23;;;;;;;;;;;17.50;66.90;;;;;;5019574;28;1914;-70
2024/02/15 04:23:48;;;;;;;;;;;17.50;66.90;;;;;;5002159;28;1263;-68
2024/02/15 04:26:14;;;;;;;;;;;17.50;66.90;;;;;;5017995;28;1453;-69
2024/02/15 04:28:40;;;;;;;;;;;17.50;67.70;;;;;;5018213;28;1284;-69
2024/02/15 04:31:08;;;;;;;;;;;17.50;66.90;;;;;;5013541;28;1073;-69
2024/02/15 04:33:34;;;;;;;;;;;17.50;67.00;;;;;;5017628;28;1370;-70
2024/02/15 04:36:02;;;;;;;;;;;17.50;67.00;;;;;;5019440;28;971;-69
2024/02/15 04:38:28;;;;;;;;;;;17.50;67.00;;;;;;5020282;28;1155;-70
2024/02/15 04:40:54;;;;;;;;;;;17.50;67.00;;;;;;5018648;28;1689;-69
2024/02/15 04:43:19;;;;;;;;;;;17.50;67.00;;;;;;5016540;28;1954;-70
2024/02/15 04:45:45;;;;;;;;;;;17.50;67.00;;;;;;5018547;28;1458;-69
2024/02/15 04:48:13;;;;;;;;;;;17.50;67.00;;;;;;5020600;28;1494;-69
2024/02/15 04:50:42;;;;;;;;;;;17.50;67.00;;;;;;5022605;28;1354;-68
2024/02/15 04:53:08;;;;;;;;;;;17.50;67.00;;;;;;5018917;28;1456;-70
2024/02/15 04:55:35;;;;;;;;;;;17.50;67.00;;;;;;5022203;28;1269;-69
2024/02/15 04:58:01;;;;;;;;;;;17.50;67.00;;;;;;5022910;28;1472;-69
2024/02/15 05:00:26;;;;;;;;;;;17.50;67.00;;;;;;5018329;28;1429;-69
2024/02/15 05:02:52;;;;;;;;;;;17.50;67.00;;;;;;5005572;28;1977;-69
2024/02/15 05:05:17;;;;;;;;;;;17.50;67.00;;;;;;5020698;28;1498;-69
2024/02/15 05:07:43;;;;;;;;;;;17.50;67.00;;;;;;5022432;28;1673;-69
2024/02/15 05:10:09;;;;;;;;;;;17.50;67.00;;;;;;5018999;28;1350;-69
2024/02/15 05:12:35;;;;;;;;;;;17.50;67.00;;;;;;5022152;28;1355;-69
2024/02/15 05:15:00;;;;;;;;;;;17.50;66.90;;;;;;5020214;28;1243;-70
2024/02/15 05:17:28;;;;;;;;;;;17.50;66.80;;;;;;5023650;28;1227;-68
2024/02/15 05:19:54;;;;;;;;;;;17.50;66.80;;;;;;5020817;28;1582;-70
2024/02/15 05:22:19;;;;;;;;;;;17.60;66.70;;;;;;5052116;28;1909;-69
2024/02/15 05:24:45;;;;;;;;;;;17.60;66.60;;;;;;5018526;28;1248;-69
2024/02/15 05:27:10;;;;;;;;;;;17.60;66.50;;;;;;5021634;28;1477;-69
2024/02/15 05:29:36;;;;;;;;;;;17.60;66.40;;;;;;5025722;28;1373;-69
2024/02/15 05:32:02;;;;;;;;;;;17.70;66.30;;;;;;5021204;28;914;-69
2024/02/15 05:34:29;;;;;;;;;;;17.70;66.20;;;;;;5020054;28;1232;-69
2024/02/15 05:36:55;;;;;;;;;;;17.70;66.10;;;;;;5020625;28;907;-68
2024/02/15 05:39:22;;;;;;;;;;;17.70;66.00;;;;;;5019456;28;1292;-70
2024/02/15 05:41:48;;;;;;;;;;;17.70;65.90;;;;;;5019788;28;1947;-70
2024/02/15 05:44:18;;;;;;;;;;;17.80;65.90;;;;;;5017910;28;1281;-71
2024/02/15 05:46:44;;;;;;;;;;;17.80;65.80;;;;;;5020956;28;1606;-71
2024/02/15 05:49:15;;;;;;;;;;;17.80;65.70;;;;;;5020405;28;1397;-70
2024/02/15 05:51:40;;;;;;;;;;;17.80;65.70;;;;;;5020099;28;1570;-71
2024/02/15 05:54:06;;;;;;;;;;;17.80;65.60;;;;;;5022130;28;1514;-70
2024/02/15 05:56:31;;;;;;;;;;;17.80;65.50;;;;;;5019931;28;1568;-70
2024/02/15 05:58:57;;;;;;;;;;;17.90;65.50;;;;;;5018025;28;1779;-70
2024/02/15 06:01:23;;;;;;;;;;;17.90;65.50;;;;;;5021140;28;1959;-71
2024/02/15 06:03:49;;;;;;;;;;;17.90;65.50;;;;;;5021756;28;1546;-70
2024/02/15 06:06:14;;;;;;;;;;;17.90;65.40;;;;;;5017990;28;1408;-69
2024/02/15 06:08:40;;;;;;;;;;;17.90;65.40;;;;;;5021117;28;1495;-69
2024/02/15 06:11:05;;;;;;;;;;;17.90;65.30;;;;;;5020281;28;1359;-69
2024/02/15 06:13:31;;;;;;;;;;;17.90;65.30;;;;;;5020472;28;1292;-69
2024/02/15 06:15:56;;;;;;;;;;;17.90;65.30;;;;;;5020530;28;1839;-68
2024/02/15 06:18:24;;;;;;;;;;;17.90;65.20;;;;;;5021663;28;1924;-66
2024/02/15 06:20:53;;;;;;;;;;;17.90;65.20;;;;;;5016327;28;1765;-67
2024/02/15 06:23:18;;;;;;;;;;;18.00;65.20;;;;;;5017737;28;1922;-67
2024/02/15 06:25:44;;;;;;;;;;;17.90;65.20;;;;;;5016466;28;1317;-66
2024/02/15 06:28:19;;;;;;;;;;;17.90;65.10;;;;;;5017366;28;2133;-69
2024/02/15 06:41:44;;;;;;;;;;;18.00;65.10;;;;;;5020896;28;1956;-68
2024/02/15 06:44:10;;;;;;;;;;;18.00;65.10;;;;;;5019342;28;1544;-67
2024/02/15 06:46:35;;;;;;;;;;;18.00;65.10;;;;;;5019470;28;1132;-68
2024/02/15 06:49:01;;;;;;;;;;;18.00;65.90;;;;;;5018136;28;1363;-67
2024/02/15 06:51:26;;;;;;;;;;;17.90;65.00;;;;;;5018778;28;1354;-67
2024/02/15 06:53:55;;;;;;;;;;;18.00;65.10;;;;;;5022735;28;1504;-69
2024/02/15 06:56:21;;;;;;;;;;;18.00;65.10;;;;;;5018687;28;1237;-67
2024/02/15 06:58:48;;;;;;;;;;;18.00;65.10;;;;;;5020904;28;1425;-72
2024/02/15 07:01:15;;;;;;;;;;;17.90;65.10;;;;;;5018008;28;1254;-71
2024/02/15 07:03:44;;;;;;;;;;;18.00;65.10;;;;;;5018828;28;1930;-70
2024/02/15 07:06:09;;;;;;;;;;;17.90;65.10;;;;;;5019121;28;1260;-69
2024/02/15 07:08:35;;;;;;;;;;;18.00;65.10;;;;;;5019268;28;1609;-68
2024/02/15 07:11:02;;;;;;;;;;;18.00;65.10;;;;;;5017335;28;1165;-69
2024/02/15 07:13:28;;;;;;;;;;;17.90;65.10;;;;;;5019362;28;1575;-68
2024/02/15 07:15:53;;;;;;;;;;;18.00;65.10;;;;;;5019280;28;1628;-67
2024/02/15 07:18:22;;;;;;;;;;;17.90;65.10;;;;;;5017777;28;1278;-68
2024/02/15 07:20:47;;;;;;;;;;;18.00;65.20;;;;;;5021385;28;1403;-68
2024/02/15 07:23:13;;;;;;;;;;;17.90;65.20;;;;;;5016247;28;1922;-68
2024/02/15 07:25:39;;;;;;;;;;;18.00;65.20;;;;;;5018395;28;1411;-68
2024/02/15 07:28:04;;;;;;;;;;;18.00;65.20;;;;;;5017708;28;1476;-71
2024/02/15 07:30:31;;;;;;;;;;;17.90;65.20;;;;;;5016744;28;1371;-69
2024/02/15 07:32:56;;;;;;;;;;;17.90;65.20;;;;;;5004110;28;1555;-68
2024/02/15 07:35:24;;;;;;;;;;;17.90;65.20;;;;;;5018501;28;1317;-68
2024/02/15 07:37:55;;;;;;;;;;;17.90;65.20;;;;;;5024106;28;1486;-68
2024/02/15 07:40:22;;;;;;;;;;;18.00;65.30;;;;;;5020933;28;1264;-68
2024/02/15 07:42:48;;;;;;;;;;;17.90;65.30;;;;;;5018217;28;1956;-67
2024/02/15 07:45:13;;;;;;;;;;;17.90;65.30;;;;;;5021817;28;1264;-69
2024/02/15 07:47:39;;;;;;;;;;;17.90;65.30;;;;;;5020668;28;1280;-69
2024/02/15 07:50:05;;;;;;;;;;;17.90;65.30;;;;;;5014821;28;2098;-68
2024/02/15 07:52:31;;;;;;;;;;;17.90;65.30;;;;;;5018468;28;1187;-67
2024/02/15 07:54:56;;;;;;;;;;;17.90;65.40;;;;;;5017928;28;1258;-70
2024/02/15 07:57:22;;;;;;;;;;;17.90;65.40;;;;;;5019556;28;1207;-70
2024/02/15 07:59:49;;;;;;;;;;;17.90;65.40;;;;;;4999725;28;1932;-68
2024/02/15 08:02:18;;;;;;;;;;;17.90;65.40;;;;;;5018230;28;1973;-69
2024/02/15 08:04:44;;;;;;;;;;;17.90;65.40;;;;;;5021417;28;1387;-67
2024/02/15 08:07:10;;;;;;;;;;;17.90;65.50;;;;;;5017425;28;1472;-68
2024/02/15 08:09:39;;;;;;;;;;;17.90;65.50;;;;;;5019156;28;1520;-68
2024/02/15 08:12:04;;;;;;;;;;;17.90;65.50;;;;;;5017811;28;1346;-68
2024/02/15 08:14:31;;;;;;;;;;;17.90;65.50;;;;;;5017586;28;1519;-69
2024/02/15 08:16:56;;;;;;;;;;;17.90;65.50;;;;;;5022286;28;1883;-68
2024/02/15 08:19:22;;;;;;;;;;;17.90;65.50;;;;;;5017364;28;1413;-70
2024/02/15 08:21:50;;;;;;;;;;;17.90;65.50;;;;;;5021995;28;1974;-70
2024/02/15 08:24:16;;;;;;;;;;;17.90;65.50;;;;;;5019317;28;1508;-70
2024/02/15 08:26:42;;;;;;;;;;;17.90;65.50;;;;;;5023035;28;1336;-70
2024/02/15 08:29:07;;;;;;;;;;;17.90;65.50;;;;;;5021916;28;1333;-69
2024/02/15 08:31:36;;;;;;;;;;;17.90;65.50;;;;;;5020782;28;1683;-69
2024/02/15 08:34:01;;;;;;;;;;;17.90;65.40;;;;;;5020649;28;1436;-69
2024/02/15 08:36:27;;;;;;;;;;;17.90;65.40;;;;;;5020101;28;1486;-69
2024/02/15 08:38:53;;;;;;;;;;;17.90;65.40;;;;;;5022301;28;2234;-69
2024/02/15 08:41:20;;;;;;;;;;;17.90;65.40;;;;;;5020929;28;1512;-69
2024/02/15 08:43:48;;;;;;;;;;;17.90;65.30;;;;;;5018480;28;1975;-69
2024/02/15 08:46:14;;;;;;;;;;;17.90;65.30;;;;;;5028779;28;1250;-69
2024/02/15 08:48:40;;;;;;;;;;;17.90;65.30;;;;;;5020370;28;1389;-69
2024/02/15 08:51:08;;;;;;;;;;;18.00;65.30;;;;;;5020314;28;1639;-69
2024/02/15 08:53:36;;;;;;;;;;;18.00;65.20;;;;;;5022463;28;1581;-69
2024/02/15 08:56:02;;;;;;;;;;;18.00;65.20;;;;;;5020419;28;1616;-69
2024/02/15 08:58:29;;;;;;;;;;;18.00;65.20;;;;;;5019680;28;1357;-69
2024/02/15 09:00:56;;;;;;;;;;;18.00;65.10;;;;;;5023530;28;1305;-71
2024/02/15 09:03:21;;;;;;;;;;;18.00;65.10;;;;;;5018579;28;2003;-70
2024/02/15 09:05:47;;;;;;;;;;;18.00;65.10;;;;;;5003960;28;1543;-71
2024/02/15 09:08:14;;;;;;;;;;;18.00;65.10;;;;;;5023346;28;1640;-71
2024/02/15 09:10:40;;;;;;;;;;;18.00;65.00;;;;;;5029091;28;1651;-71
2024/02/15 09:13:06;;;;;;;;;;;18.00;65.00;;;;;;5021292;28;1343;-71
2024/02/15 09:15:32;;;;;;;;;;;18.00;65.00;;;;;;5021697;28;1312;-69
2024/02/15 09:17:57;;;;;;;;;;;18.00;65.00;;;;;;5021615;28;936;-69
2024/02/15 09:20:27;;;;;;;;;;;18.00;65.00;;;;;;5021560;28;1284;-70
2024/02/15 09:22:56;;;;;;;;;;;18.00;65.00;;;;;;5022373;28;1997;-70
2024/02/15 09:25:25;;;;;;;;;;;18.00;64.90;;;;;;5022040;28;1138;-71
2024/02/15 09:27:50;;;;;;;;;;;18.00;65.00;;;;;;5024627;28;1586;-70
2024/02/15 09:30:16;;;;;;;;;;;18.00;64.90;;;;;;5019551;28;1379;-71
2024/02/15 09:32:41;;;;;;;;;;;18.00;65.00;;;;;;5020671;28;1991;-69
2024/02/15 09:35:11;;;;;;;;;;;18.00;64.90;;;;;;5019180;28;1266;-69
2024/02/15 09:37:49;;;;;;;;;;;18.00;64.90;;;;;;5020900;28;1471;-69
2024/02/15 09:40:16;;;;;;;;;;;18.10;65.00;;;;;;5018804;28;1370;-69
2024/02/15 09:42:45;;;;;;;;;;;18.00;64.90;;;;;;5027667;28;1967;-70
2024/02/15 09:45:12;;;;;;;;;;;18.00;64.80;;;;;;5020835;28;1356;-69
2024/02/15 09:47:40;;;;;;;;;;;18.00;64.80;;;;;;5027536;28;1494;-73
2024/02/15 09:50:13;;;;;;;;;;;18.00;64.80;;;;;;5020263;28;1272;-71
2024/02/15 09:52:42;;;;;;;;;;;18.00;64.80;;;;;;5020923;28;1378;-72
2024/02/15 09:55:13;;;;;;;;;;;18.10;64.90;;;;;;5017296;28;1297;-70
2024/02/15 09:57:40;;;;;;;;;;;18.10;64.90;;;;;;5006073;28;1315;-71
2024/02/15 10:00:13;;;;;;;;;;;18.10;64.90;;;;;;5017521;28;1280;-70
2024/02/15 10:02:39;;;;;;;;;;;18.10;64.90;;;;;;5021624;28;1991;-71
2024/02/15 10:05:05;;;;;;;;;;;18.10;64.80;;;;;;5019745;28;1456;-70
2024/02/15 10:07:31;;;;;;;;;;;18.10;64.80;;;;;;5018109;28;1265;-71
2024/02/15 10:09:56;;;;;;;;;;;18.10;64.80;;;;;;5017404;28;1492;-71
2024/02/15 10:12:22;;;;;;;;;;;18.10;64.80;;;;;;5027839;28;1407;-70
2024/02/15 10:14:49;;;;;;;;;;;18.10;64.90;;;;;;5017323;28;1536;-71
2024/02/15 10:17:17;;;;;;;;;;;18.10;64.80;;;;;;5016675;28;1474;-71
2024/02/15 10:19:43;;;;;;;;;;;18.10;64.80;;;;;;5019575;28;1533;-70
2024/02/15 10:22:09;;;;;;;;;;;18.10;64.80;;;;;;5018558;28;1906;-70
2024/02/15 10:24:36;;;;;;;;;;;18.10;64.80;;;;;;5020844;28;886;-71
2024/02/15 10:27:10;;;;;;;;;;;18.10;64.80;;;;;;5036015;28;1584;-70
2024/02/15 10:29:35;;;;;;;;;;;18.10;64.80;;;;;;5019143;28;1469;-70
2024/02/15 10:32:02;;;;;;;;;;;18.10;64.80;;;;;;5034418;28;1493;-68
2024/02/15 10:34:27;;;;;;;;;;;18.10;64.80;;;;;;5021414;28;1600;-70
2024/02/15 10:37:12;;;;;;;;;;;18.10;64.80;;;;;;5020818;28;1426;-70
2024/02/15 10:39:37;;;;;;;;;;;18.10;64.80;;;;;;5018386;28;1267;-70
2024/02/15 10:42:03;;;;;;;;;;;18.10;64.80;;;;;;5019765;28;1902;-69
2024/02/15 10:44:28;;;;;;;;;;;18.10;64.80;;;;;;5014662;28;1495;-69
2024/02/15 10:46:54;;;;;;;;;;;18.10;64.80;;;;;;5017880;28;1666;-69
2024/02/15 10:49:20;;;;;;;;;;;18.10;64.80;;;;;;5018436;28;1465;-69
2024/02/15 10:51:51;;;;;;;;;;;18.10;64.80;;;;;;5017095;28;1607;-68
2024/02/15 10:54:19;;;;;;;;;;;18.10;64.80;;;;;;5027283;28;1237;-68
2024/02/15 10:56:46;;;;;;;;;;;18.10;64.90;;;;;;5000283;28;1388;-69
2024/02/15 10:59:14;;;;;;;;;;;18.10;64.80;;;;;;5010662;28;1430;-69
2024/02/15 11:01:40;;;;;;;;;;;18.10;64.90;;;;;;5017798;28;1981;-69
2024/02/15 11:04:07;;;;;;;;;;;18.10;64.90;;;;;;5016206;28;1579;-68
2024/02/15 11:06:33;;;;;;;;;;;18.10;64.90;;;;;;5018719;28;1461;-69
2024/02/15 11:08:59;;;;;;;;;;;18.00;64.90;;;;;;5020717;28;1480;-69
2024/02/15 11:11:24;;;;;;;;;;;18.00;64.90;;;;;;5020519;28;1239;-68
2024/02/15 11:13:50;;;;;;;;;;;18.00;65.00;;;;;;5018375;28;1343;-68
2024/02/15 11:16:34;;;;;;;;;;;18.00;65.00;;;;;;5015421;28;1251;-70
2024/02/15 11:19:00;;;;;;;;;;;18.00;65.00;;;;;;5018602;28;1433;-68
2024/02/15 11:21:44;;;;;;;;;;;18.00;65.00;;;;;;5017049;28;1854;-69
2024/02/15 11:24:29;;;;;;;;;;;18.00;65.00;;;;;;5017650;28;1406;-69
2024/02/15 11:26:58;;;;;;;;;;;18.00;65.10;;;;;;5018529;28;1207;-69
2024/02/15 11:29:42;;;;;;;;;;;18.00;65.10;;;;;;5020679;28;1332;-69
2024/02/15 11:32:08;;;;;;;;;;;18.00;65.10;;;;;;5016311;28;1287;-69
2024/02/15 11:34:46;;;;;;;;;;;18.00;65.10;;;;;;5021389;28;1396;-70
2024/02/15 11:37:30;;;;;;;;;;;18.00;65.10;;;;;;5018748;28;1423;-70
2024/02/15 11:39:58;;;;;;;;;;;18.00;65.10;;;;;;5018356;28;1645;-70
2024/02/15 11:42:30;;;;;;;;;;;18.00;65.10;;;;;;5017569;28;1886;-68
2024/02/15 11:45:04;;;;;;;;;;;18.00;65.10;;;;;;5015885;28;1326;-69
2024/02/15 11:47:32;;;;;;;;;;;18.00;65.10;;;;;;5020798;28;1601;-69
2024/02/15 11:49:59;;;;;;;;;;;18.00;65.00;;;;;;5017932;28;1469;-69
2024/02/15 11:52:25;;;;;;;;;;;18.00;65.80;;;;;;5018462;28;1452;-69
2024/02/15 11:54:50;;;;;;;;;;;18.00;65.80;;;;;;5017844;28;1828;-70
2024/02/15 11:57:25;;;;;;;;;;;18.00;65.00;;;;;;5021429;28;1607;-69
2024/02/15 12:18:38;;;;;;;;;;;18.00;65.00;;;;;;5020222;28;1577;-70
2024/02/15 12:19:19;;;;;;;;;;;18.10;64.90;;;;;;5018722;28;1291;-68
2024/02/15 12:21:44;;;;;;;;;;;18.10;64.90;;;;;;5020980;28;1981;-69
2024/02/15 12:24:11;;;;;;;;;;;18.00;64.80;;;;;;5029121;28;990;-69
2024/02/15 12:26:38;;;;;;;;;;;18.10;64.90;;;;;;5021169;28;1292;-70
2024/02/15 12:29:06;;;;;;;;;;;18.10;64.90;;;;;;5023946;28;1311;-70
2024/02/15 12:31:31;;;;;;;;;;;18.10;64.90;;;;;;5023602;28;1616;-67
2024/02/15 12:34:00;;;;;;;;;;;18.10;64.90;;;;;;5020972;28;1559;-70
2024/02/15 12:36:26;;;;;;;;;;;18.10;64.90;;;;;;5019742;28;1311;-68
2024/02/15 12:38:59;;;;;;;;;;;18.10;64.90;;;;;;5022592;28;1654;-69
2024/02/15 12:41:24;;;;;;;;;;;18.10;64.80;;;;;;5020142;28;1236;-70
2024/02/15 12:43:53;;;;;;;;;;;18.10;64.90;;;;;;5020856;28;1894;-69
2024/02/15 12:46:22;;;;;;;;;;;18.10;64.80;;;;;;5021492;28;1563;-71
2024/02/15 12:48:47;;;;;;;;;;;18.10;64.80;;;;;;5008062;28;2492;-70
2024/02/15 12:51:14;;;;;;;;;;;18.10;64.80;;;;;;5005012;28;2144;-70
2024/02/15 12:53:41;;;;;;;;;;;18.10;64.80;;;;;;5021922;28;1964;-70
2024/02/15 12:56:09;;;;;;;;;;;18.10;64.70;;;;;;5023278;28;1271;-69
2024/02/15 12:58:34;;;;;;;;;;;18.10;64.80;;;;;;5024737;28;922;-69
2024/02/15 13:01:01;;;;;;;;;;;18.10;64.70;;;;;;5022304;28;1544;-69
2024/02/15 13:03:27;;;;;;;;;;;18.10;65.50;;;;;;5028072;28;1967;-69
2024/02/15 13:05:52;;;;;;;;;;;18.10;64.70;;;;;;5004553;28;1381;-69
2024/02/15 13:08:18;;;;;;;;;;;18.10;64.70;;;;;;5020060;28;1118;-69
2024/02/15 13:10:43;;;;;;;;;;;18.10;64.70;;;;;;5023085;28;1741;-69
2024/02/15 13:13:09;;;;;;;;;;;18.10;64.70;;;;;;5021319;28;1474;-69
2024/02/15 13:15:36;;;;;;;;;;;18.10;64.60;;;;;;5022098;28;1484;-69
2024/02/15 13:18:04;;;;;;;;;;;18.10;64.60;;;;;;5019903;28;2048;-68
2024/02/15 13:20:33;;;;;;;;;;;18.20;64.60;;;;;;5018902;28;1363;-69
2024/02/15 13:23:03;;;;;;;;;;;18.20;64.70;;;;;;5018215;28;2117;-69
2024/02/15 13:25:29;;;;;;;;;;;18.20;64.60;;;;;;5016558;28;2162;-69
2024/02/15 13:27:55;;;;;;;;;;;18.20;64.60;;;;;;5022164;28;1852;-69
2024/02/15 13:30:23;;;;;;;;;;;18.20;64.60;;;;;;5022001;28;1379;-69
2024/02/15 13:32:50;;;;;;;;;;;18.20;64.50;;;;;;5021902;28;1546;-68
2024/02/15 13:35:20;;;;;;;;;;;18.20;64.50;;;;;;5017090;28;2336;-70
2024/02/15 13:37:54;;;;;;;;;;;18.20;64.50;;;;;;5015901;28;2205;-68
2024/02/15 13:40:23;;;;;;;;;;;18.20;64.60;;;;;;5016250;28;1929;-68
2024/02/15 13:42:58;;;;;;;;;;;18.20;64.60;;;;;;5016276;28;1955;-68
2024/02/15 13:45:44;;;;;;;;;;;18.20;64.50;;;;;;5026808;28;1499;-68
2024/02/15 13:48:10;;;;;;;;;;;18.20;64.60;;;;;;5018279;28;1361;-68
2024/02/15 13:50:36;;;;;;;;;;;18.20;64.60;;;;;;5017388;28;1532;-68
2024/02/15 13:53:04;;;;;;;;;;;18.20;64.60;;;;;;5016790;28;1248;-68
2024/02/15 13:55:30;;;;;;;;;;;18.20;64.60;;;;;;5027893;28;1487;-68
2024/02/15 13:57:59;;;;;;;;;;;18.20;64.60;;;;;;5020545;28;1490;-68
2024/02/15 14:00:29;;;;;;;;;;;18.10;64.60;;;;;;5019822;28;1498;-70
2024/02/15 14:02:55;;;;;;;;;;;18.10;64.70;;;;;;5019100;28;2048;-70
2024/02/15 14:05:25;;;;;;;;;;;18.20;64.70;;;;;;5018817;28;1691;-69
2024/02/15 14:07:53;;;;;;;;;;;18.10;64.70;;;;;;5018736;28;1340;-70
2024/02/15 14:10:20;;;;;;;;;;;18.10;64.70;;;;;;5019228;28;1329;-69
2024/02/15 14:12:46;;;;;;;;;;;18.10;64.70;;;;;;5011898;28;1572;-68
2024/02/15 14:15:12;;;;;;;;;;;18.10;64.70;;;;;;5021270;28;1743;-69
2024/02/15 14:17:37;;;;;;;;;;;18.10;64.70;;;;;;5016976;28;1607;-68
2024/02/15 14:20:08;;;;;;;;;;;18.10;64.70;;;;;;5020068;28;1678;-69
2024/02/15 14:22:34;;;;;;;;;;;18.10;64.70;;;;;;5021108;28;1926;-68
2024/02/15 14:25:00;;;;;;;;;;;18.10;64.60;;;;;;5019964;28;2767;-67
2024/02/15 14:27:25;;;;;;;;;;;18.20;64.70;;;;;;5025482;28;2599;-68
2024/02/15 14:35:20;;;;;;;;;;;18.20;64.70;;;;;;5017540;28;2145;-66
2024/02/15 14:37:46;;;;;;;;;;;18.20;64.70;;;;;;5018490;28;1644;-67
2024/02/15 14:40:14;;;;;;;;;;;18.20;64.70;;;;;;5005581;28;1693;-69
2024/02/15 14:42:41;;;;;;;;;;;18.20;64.70;;;;;;5018035;28;1961;-67
2024/02/15 14:45:08;;;;;;;;;;;18.20;64.70;;;;;;5018868;28;1524;-68
2024/02/15 14:47:33;;;;;;;;;;;18.20;64.70;;;;;;5020927;28;1941;-69
2024/02/15 14:49:59;;;;;;;;;;;18.20;64.70;;;;;;5018985;28;1280;-70
2024/02/15 14:52:24;;;;;;;;;;;18.10;64.60;;;;;;5019341;28;1895;-70
2024/02/15 14:54:51;;;;;;;;;;;18.20;64.70;;;;;;5007302;28;1506;-69
2024/02/15 14:57:17;;;;;;;;;;;18.20;65.50;;;;;;5018129;28;1563;-70
2024/02/15 14:59:43;;;;;;;;;;;18.20;64.70;;;;;;5019680;28;1570;-69
2024/02/15 15:02:09;;;;;;;;;;;18.10;64.70;;;;;;5017914;28;1946;-69